sensor_id;sensor_type;location;lat;lon;timestamp;P1;durP1;ratioP1;P2;durP2;ratioP2
52456;SDS011;38369;52.840;7.082;2023-04-06T00:01:06;8.20;;;6.43;;
52456;SDS011;38369;52.840;7.082;2023-04-06T00:03:33;6.35;;;5.72;;
52456;SDS011;38369;52.840;7.082;2023-04-06T00:05:59;10.35;;;6.60;;
52456;SDS011;38369;52.840;7.082;2023-04-06T00:08:25;6.90;;;6.07;;
52456;SDS011;38369;52.840;7.082;2023-04-06T00:10:52;12.48;;;6.80;;
52456;SDS011;38369;52.840;7.082;2023-04-06T00:13:18;11.52;;;6.57;;
52456;SDS011;38369;52.840;7.082;2023-04-06T00:15:44;7.47;;;6.25;;
52456;SDS011;38369;52.840;7.082;2023-04-06T00:18:10;7.78;;;6.80;;
52456;SDS011;38369;52.840;7.082;2023-04-06T00:20:36;7.32;;;6.18;;
52456;SDS011;38369;52.840;7.082;2023-04-06T00:23:03;8.18;;;6.25;;
52456;SDS011;38369;52.840;7.082;2023-04-06T00:25:29;9.77;;;6.78;;
52456;SDS011;38369;52.840;7.082;2023-04-06T00:27:55;7.50;;;6.20;;
52456;SDS011;38369;52.840;7.082;2023-04-06T00:30:21;7.78;;;5.80;;
52456;SDS011;38369;52.840;7.082;2023-04-06T00:32:48;9.50;;;6.53;;
52456;SDS011;38369;52.840;7.082;2023-04-06T00:35:14;9.07;;;7.10;;
52456;SDS011;38369;52.840;7.082;2023-04-06T00:37:40;8.35;;;6.07;;
52456;SDS011;38369;52.840;7.082;2023-04-06T00:40:07;7.80;;;6.13;;
52456;SDS011;38369;52.840;7.082;2023-04-06T00:42:33;14.00;;;7.07;;
52456;SDS011;38369;52.840;7.082;2023-04-06T00:45:00;8.60;;;6.50;;
52456;SDS011;38369;52.840;7.082;2023-04-06T00:47:27;8.10;;;6.53;;
52456;SDS011;38369;52.840;7.082;2023-04-06T00:49:53;8.55;;;6.13;;
52456;SDS011;38369;52.840;7.082;2023-04-06T00:52:20;7.18;;;5.13;;
52456;SDS011;38369;52.840;7.082;2023-04-06T00:54:46;10.25;;;7.15;;
52456;SDS011;38369;52.840;7.082;2023-04-06T00:57:12;9.07;;;6.65;;
52456;SDS011;38369;52.840;7.082;2023-04-06T00:59:39;7.65;;;6.00;;
52456;SDS011;38369;52.840;7.082;2023-04-06T01:02:05;10.05;;;6.20;;
52456;SDS011;38369;52.840;7.082;2023-04-06T01:04:32;8.75;;;6.82;;
52456;SDS011;38369;52.840;7.082;2023-04-06T01:06:58;11.05;;;6.35;;
52456;SDS011;38369;52.840;7.082;2023-04-06T01:09:24;7.57;;;6.32;;
52456;SDS011;38369;52.840;7.082;2023-04-06T01:11:51;10.18;;;6.18;;
52456;SDS011;38369;52.840;7.082;2023-04-06T01:14:17;7.72;;;6.10;;
52456;SDS011;38369;52.840;7.082;2023-04-06T01:16:43;10.05;;;6.65;;
52456;SDS011;38369;52.840;7.082;2023-04-06T01:19:09;9.68;;;6.68;;
52456;SDS011;38369;52.840;7.082;2023-04-06T01:21:39;9.48;;;6.95;;
52456;SDS011;38369;52.840;7.082;2023-04-06T01:24:06;12.32;;;6.60;;
52456;SDS011;38369;52.840;7.082;2023-04-06T01:26:33;7.93;;;6.07;;
52456;SDS011;38369;52.840;7.082;2023-04-06T01:28:59;6.70;;;6.00;;
52456;SDS011;38369;52.840;7.082;2023-04-06T01:31:25;8.93;;;7.13;;
52456;SDS011;38369;52.840;7.082;2023-04-06T01:33:52;9.43;;;6.93;;
52456;SDS011;38369;52.840;7.082;2023-04-06T01:36:18;9.98;;;7.15;;
52456;SDS011;38369;52.840;7.082;2023-04-06T01:38:45;7.93;;;6.25;;
52456;SDS011;38369;52.840;7.082;2023-04-06T01:41:11;8.82;;;6.90;;
52456;SDS011;38369;52.840;7.082;2023-04-06T01:43:37;11.57;;;8.43;;
52456;SDS011;38369;52.840;7.082;2023-04-06T01:46:03;9.57;;;7.57;;
52456;SDS011;38369;52.840;7.082;2023-04-06T01:48:29;10.52;;;7.63;;
52456;SDS011;38369;52.840;7.082;2023-04-06T01:50:55;9.80;;;6.80;;
52456;SDS011;38369;52.840;7.082;2023-04-06T01:53:21;13.20;;;7.07;;
52456;SDS011;38369;52.840;7.082;2023-04-06T01:55:47;10.07;;;6.80;;
52456;SDS011;38369;52.840;7.082;2023-04-06T01:58:13;10.02;;;6.88;;
52456;SDS011;38369;52.840;7.082;2023-04-06T02:00:40;9.35;;;7.53;;
52456;SDS011;38369;52.840;7.082;2023-04-06T02:03:06;13.15;;;7.55;;
52456;SDS011;38369;52.840;7.082;2023-04-06T02:05:33;9.82;;;7.78;;
52456;SDS011;38369;52.840;7.082;2023-04-06T02:08:05;8.55;;;7.50;;
52456;SDS011;38369;52.840;7.082;2023-04-06T02:10:31;9.60;;;8.25;;
52456;SDS011;38369;52.840;7.082;2023-04-06T02:12:58;8.73;;;7.03;;
52456;SDS011;38369;52.840;7.082;2023-04-06T02:15:24;10.63;;;7.78;;
52456;SDS011;38369;52.840;7.082;2023-04-06T02:17:50;11.00;;;7.43;;
52456;SDS011;38369;52.840;7.082;2023-04-06T02:20:16;11.35;;;7.50;;
52456;SDS011;38369;52.840;7.082;2023-04-06T02:22:43;8.88;;;7.15;;
52456;SDS011;38369;52.840;7.082;2023-04-06T02:25:09;10.70;;;7.65;;
52456;SDS011;38369;52.840;7.082;2023-04-06T02:27:35;9.70;;;7.88;;
52456;SDS011;38369;52.840;7.082;2023-04-06T02:30:01;8.90;;;7.38;;
52456;SDS011;38369;52.840;7.082;2023-04-06T02:32:28;11.20;;;7.47;;
52456;SDS011;38369;52.840;7.082;2023-04-06T02:34:54;11.32;;;8.35;;
52456;SDS011;38369;52.840;7.082;2023-04-06T02:37:20;8.75;;;7.82;;
52456;SDS011;38369;52.840;7.082;2023-04-06T02:39:48;14.05;;;7.82;;
52456;SDS011;38369;52.840;7.082;2023-04-06T02:42:14;9.07;;;7.43;;
52456;SDS011;38369;52.840;7.082;2023-04-06T02:44:41;10.45;;;7.70;;
52456;SDS011;38369;52.840;7.082;2023-04-06T02:47:07;10.07;;;8.02;;
52456;SDS011;38369;52.840;7.082;2023-04-06T02:49:33;9.75;;;8.00;;
52456;SDS011;38369;52.840;7.082;2023-04-06T02:51:59;9.50;;;7.63;;
52456;SDS011;38369;52.840;7.082;2023-04-06T02:54:25;11.18;;;7.38;;
52456;SDS011;38369;52.840;7.082;2023-04-06T02:56:51;9.48;;;7.78;;
52456;SDS011;38369;52.840;7.082;2023-04-06T02:59:17;11.20;;;7.88;;
52456;SDS011;38369;52.840;7.082;2023-04-06T03:01:44;8.32;;;7.45;;
52456;SDS011;38369;52.840;7.082;2023-04-06T03:04:10;9.98;;;7.20;;
52456;SDS011;38369;52.840;7.082;2023-04-06T03:06:36;8.73;;;7.82;;
52456;SDS011;38369;52.840;7.082;2023-04-06T03:09:03;10.07;;;8.05;;
52456;SDS011;38369;52.840;7.082;2023-04-06T03:11:29;9.45;;;8.52;;
52456;SDS011;38369;52.840;7.082;2023-04-06T03:13:55;10.27;;;7.95;;
52456;SDS011;38369;52.840;7.082;2023-04-06T03:16:21;8.57;;;7.72;;
52456;SDS011;38369;52.840;7.082;2023-04-06T03:18:47;9.00;;;8.10;;
52456;SDS011;38369;52.840;7.082;2023-04-06T03:21:13;11.32;;;9.20;;
52456;SDS011;38369;52.840;7.082;2023-04-06T03:23:44;11.32;;;8.25;;
52456;SDS011;38369;52.840;7.082;2023-04-06T03:26:10;10.90;;;8.50;;
52456;SDS011;38369;52.840;7.082;2023-04-06T03:28:36;9.60;;;8.45;;
52456;SDS011;38369;52.840;7.082;2023-04-06T03:31:02;14.15;;;8.60;;
52456;SDS011;38369;52.840;7.082;2023-04-06T03:33:28;14.57;;;8.80;;
52456;SDS011;38369;52.840;7.082;2023-04-06T03:35:55;12.88;;;9.10;;
52456;SDS011;38369;52.840;7.082;2023-04-06T03:38:21;14.77;;;8.80;;
52456;SDS011;38369;52.840;7.082;2023-04-06T03:40:47;15.27;;;8.68;;
52456;SDS011;38369;52.840;7.082;2023-04-06T03:43:13;10.15;;;8.63;;
52456;SDS011;38369;52.840;7.082;2023-04-06T03:45:39;10.23;;;9.20;;
52456;SDS011;38369;52.840;7.082;2023-04-06T03:48:05;12.23;;;9.07;;
52456;SDS011;38369;52.840;7.082;2023-04-06T03:50:31;14.27;;;9.77;;
52456;SDS011;38369;52.840;7.082;2023-04-06T03:52:57;14.00;;;9.52;;
52456;SDS011;38369;52.840;7.082;2023-04-06T03:55:23;10.57;;;9.07;;
52456;SDS011;38369;52.840;7.082;2023-04-06T03:57:50;11.82;;;9.40;;
52456;SDS011;38369;52.840;7.082;2023-04-06T06:56:58;21.60;;;12.13;;
52456;SDS011;38369;52.840;7.082;2023-04-06T06:59:25;15.25;;;13.02;;
52456;SDS011;38369;52.840;7.082;2023-04-06T07:01:51;18.42;;;12.32;;
52456;SDS011;38369;52.840;7.082;2023-04-06T07:04:17;15.73;;;10.75;;
52456;SDS011;38369;52.840;7.082;2023-04-06T07:06:44;14.00;;;11.18;;
52456;SDS011;38369;52.840;7.082;2023-04-06T07:09:10;14.65;;;10.80;;
52456;SDS011;38369;52.840;7.082;2023-04-06T07:11:36;15.00;;;11.55;;
52456;SDS011;38369;52.840;7.082;2023-04-06T07:14:02;14.52;;;11.10;;
52456;SDS011;38369;52.840;7.082;2023-04-06T07:16:28;14.95;;;10.57;;
52456;SDS011;38369;52.840;7.082;2023-04-06T07:18:55;15.25;;;11.43;;
52456;SDS011;38369;52.840;7.082;2023-04-06T07:21:21;16.33;;;11.35;;
52456;SDS011;38369;52.840;7.082;2023-04-06T07:23:47;14.65;;;11.55;;
52456;SDS011;38369;52.840;7.082;2023-04-06T07:26:15;17.15;;;11.43;;
52456;SDS011;38369;52.840;7.082;2023-04-06T07:28:41;14.07;;;11.90;;
52456;SDS011;38369;52.840;7.082;2023-04-06T07:31:08;16.10;;;11.88;;
52456;SDS011;38369;52.840;7.082;2023-04-06T07:33:34;17.98;;;11.88;;
52456;SDS011;38369;52.840;7.082;2023-04-06T07:36:00;15.40;;;11.93;;
52456;SDS011;38369;52.840;7.082;2023-04-06T07:38:26;13.13;;;11.40;;
52456;SDS011;38369;52.840;7.082;2023-04-06T07:40:52;14.73;;;11.50;;
52456;SDS011;38369;52.840;7.082;2023-04-06T07:43:18;14.18;;;10.60;;
52456;SDS011;38369;52.840;7.082;2023-04-06T07:45:44;14.85;;;11.43;;
52456;SDS011;38369;52.840;7.082;2023-04-06T07:48:10;15.48;;;12.68;;
52456;SDS011;38369;52.840;7.082;2023-04-06T07:50:36;15.85;;;10.95;;
52456;SDS011;38369;52.840;7.082;2023-04-06T07:53:03;17.42;;;11.95;;
52456;SDS011;38369;52.840;7.082;2023-04-06T07:55:29;14.88;;;10.75;;
52456;SDS011;38369;52.840;7.082;2023-04-06T07:57:55;17.08;;;11.18;;
52456;SDS011;38369;52.840;7.082;2023-04-06T08:00:21;15.57;;;11.73;;
52456;SDS011;38369;52.840;7.082;2023-04-06T08:02:47;16.08;;;12.23;;
52456;SDS011;38369;52.840;7.082;2023-04-06T08:05:13;17.58;;;12.27;;
52456;SDS011;38369;52.840;7.082;2023-04-06T08:07:40;13.05;;;11.02;;
52456;SDS011;38369;52.840;7.082;2023-04-06T08:10:06;16.02;;;10.90;;
52456;SDS011;38369;52.840;7.082;2023-04-06T08:12:32;16.88;;;12.27;;
52456;SDS011;38369;52.840;7.082;2023-04-06T08:14:59;14.88;;;11.40;;
52456;SDS011;38369;52.840;7.082;2023-04-06T08:17:25;17.60;;;12.45;;
52456;SDS011;38369;52.840;7.082;2023-04-06T08:19:55;20.17;;;11.18;;
52456;SDS011;38369;52.840;7.082;2023-04-06T08:22:21;21.55;;;11.68;;
52456;SDS011;38369;52.840;7.082;2023-04-06T08:24:47;15.18;;;11.65;;
52456;SDS011;38369;52.840;7.082;2023-04-06T08:27:13;14.50;;;11.73;;
52456;SDS011;38369;52.840;7.082;2023-04-06T08:29:39;16.13;;;12.00;;
52456;SDS011;38369;52.840;7.082;2023-04-06T08:32:06;17.30;;;12.98;;
52456;SDS011;38369;52.840;7.082;2023-04-06T08:34:32;16.25;;;11.50;;
52456;SDS011;38369;52.840;7.082;2023-04-06T08:36:59;19.75;;;11.32;;
52456;SDS011;38369;52.840;7.082;2023-04-06T08:39:25;16.05;;;11.80;;
52456;SDS011;38369;52.840;7.082;2023-04-06T08:41:53;15.90;;;12.38;;
52456;SDS011;38369;52.840;7.082;2023-04-06T08:44:22;16.58;;;12.60;;
52456;SDS011;38369;52.840;7.082;2023-04-06T08:46:48;20.13;;;12.02;;
52456;SDS011;38369;52.840;7.082;2023-04-06T08:49:15;14.05;;;10.68;;
52456;SDS011;38369;52.840;7.082;2023-04-06T08:51:42;18.08;;;11.38;;
52456;SDS011;38369;52.840;7.082;2023-04-06T08:54:08;15.75;;;12.23;;
52456;SDS011;38369;52.840;7.082;2023-04-06T08:56:36;16.52;;;10.45;;
52456;SDS011;38369;52.840;7.082;2023-04-06T08:59:02;14.65;;;10.23;;
52456;SDS011;38369;52.840;7.082;2023-04-06T09:01:29;19.23;;;10.85;;
52456;SDS011;38369;52.840;7.082;2023-04-06T09:03:56;14.43;;;11.43;;
52456;SDS011;38369;52.840;7.082;2023-04-06T09:06:22;15.60;;;10.75;;
52456;SDS011;38369;52.840;7.082;2023-04-06T09:08:48;17.17;;;11.55;;
52456;SDS011;38369;52.840;7.082;2023-04-06T09:11:15;14.82;;;11.02;;
52456;SDS011;38369;52.840;7.082;2023-04-06T09:13:45;14.73;;;11.52;;
52456;SDS011;38369;52.840;7.082;2023-04-06T09:16:12;18.70;;;11.43;;
52456;SDS011;38369;52.840;7.082;2023-04-06T09:18:38;14.48;;;11.45;;
52456;SDS011;38369;52.840;7.082;2023-04-06T09:21:05;15.55;;;9.57;;
52456;SDS011;38369;52.840;7.082;2023-04-06T09:23:31;13.55;;;10.48;;
52456;SDS011;38369;52.840;7.082;2023-04-06T09:26:11;13.07;;;10.00;;
52456;SDS011;38369;52.840;7.082;2023-04-06T09:28:52;15.85;;;11.20;;
52456;SDS011;38369;52.840;7.082;2023-04-06T09:33:44;15.80;;;10.50;;
52456;SDS011;38369;52.840;7.082;2023-04-06T09:36:11;12.18;;;10.02;;
52456;SDS011;38369;52.840;7.082;2023-04-06T09:38:51;14.63;;;9.55;;
52456;SDS011;38369;52.840;7.082;2023-04-06T09:41:28;11.50;;;9.83;;
52456;SDS011;38369;52.840;7.082;2023-04-06T09:46:51;13.55;;;9.90;;
52456;SDS011;38369;52.840;7.082;2023-04-06T09:49:19;14.93;;;11.32;;
52456;SDS011;38369;52.840;7.082;2023-04-06T09:51:46;16.90;;;11.70;;
52456;SDS011;38369;52.840;7.082;2023-04-06T09:54:15;16.70;;;11.63;;
52456;SDS011;38369;52.840;7.082;2023-04-06T09:59:17;17.90;;;12.50;;
52456;SDS011;38369;52.840;7.082;2023-04-06T10:01:45;16.13;;;11.82;;
52456;SDS011;38369;52.840;7.082;2023-04-06T10:06:50;16.98;;;12.15;;
52456;SDS011;38369;52.840;7.082;2023-04-06T10:09:18;18.10;;;12.45;;
52456;SDS011;38369;52.840;7.082;2023-04-06T10:11:44;18.90;;;13.30;;
52456;SDS011;38369;52.840;7.082;2023-04-06T10:14:10;19.10;;;12.85;;
52456;SDS011;38369;52.840;7.082;2023-04-06T10:16:37;17.70;;;13.75;;
52456;SDS011;38369;52.840;7.082;2023-04-06T10:19:13;20.67;;;14.82;;
52456;SDS011;38369;52.840;7.082;2023-04-06T10:21:42;17.77;;;12.80;;
52456;SDS011;38369;52.840;7.082;2023-04-06T10:24:09;18.23;;;14.60;;
52456;SDS011;38369;52.840;7.082;2023-04-06T10:26:37;24.23;;;17.67;;
52456;SDS011;38369;52.840;7.082;2023-04-06T10:29:03;23.73;;;16.27;;
52456;SDS011;38369;52.840;7.082;2023-04-06T10:31:29;20.05;;;14.73;;
52456;SDS011;38369;52.840;7.082;2023-04-06T10:34:01;22.25;;;16.10;;
52456;SDS011;38369;52.840;7.082;2023-04-06T10:36:31;22.02;;;17.42;;
52456;SDS011;38369;52.840;7.082;2023-04-06T10:39:02;21.58;;;16.70;;
52456;SDS011;38369;52.840;7.082;2023-04-06T10:43:55;24.00;;;16.70;;
52456;SDS011;38369;52.840;7.082;2023-04-06T10:46:27;27.75;;;17.17;;
52456;SDS011;38369;52.840;7.082;2023-04-06T10:48:54;20.83;;;16.08;;
52456;SDS011;38369;52.840;7.082;2023-04-06T10:51:25;26.67;;;17.42;;
52456;SDS011;38369;52.840;7.082;2023-04-06T10:53:52;20.85;;;16.63;;
52456;SDS011;38369;52.840;7.082;2023-04-06T10:56:21;25.27;;;18.42;;
52456;SDS011;38369;52.840;7.082;2023-04-06T10:58:48;24.33;;;17.77;;
52456;SDS011;38369;52.840;7.082;2023-04-06T11:01:18;25.40;;;18.45;;
52456;SDS011;38369;52.840;7.082;2023-04-06T11:03:45;25.98;;;19.63;;
52456;SDS011;38369;52.840;7.082;2023-04-06T11:06:17;27.35;;;19.75;;
52456;SDS011;38369;52.840;7.082;2023-04-06T11:08:43;24.67;;;17.10;;
52456;SDS011;38369;52.840;7.082;2023-04-06T11:11:10;22.08;;;17.10;;
52456;SDS011;38369;52.840;7.082;2023-04-06T11:13:53;24.77;;;17.10;;
52456;SDS011;38369;52.840;7.082;2023-04-06T11:16:20;24.10;;;17.27;;
52456;SDS011;38369;52.840;7.082;2023-04-06T11:18:56;23.83;;;17.40;;
52456;SDS011;38369;52.840;7.082;2023-04-06T11:21:33;26.38;;;18.02;;
52456;SDS011;38369;52.840;7.082;2023-04-06T11:24:07;26.33;;;19.13;;
52456;SDS011;38369;52.840;7.082;2023-04-06T11:26:37;25.83;;;18.88;;
52456;SDS011;38369;52.840;7.082;2023-04-06T11:29:04;23.63;;;17.25;;
52456;SDS011;38369;52.840;7.082;2023-04-06T11:31:31;28.02;;;18.67;;
52456;SDS011;38369;52.840;7.082;2023-04-06T11:33:57;28.13;;;19.23;;
52456;SDS011;38369;52.840;7.082;2023-04-06T11:36:23;25.05;;;19.25;;
52456;SDS011;38369;52.840;7.082;2023-04-06T11:38:49;23.13;;;18.52;;
52456;SDS011;38369;52.840;7.082;2023-04-06T11:41:15;28.15;;;19.40;;
52456;SDS011;38369;52.840;7.082;2023-04-06T11:43:47;22.65;;;18.10;;
52456;SDS011;38369;52.840;7.082;2023-04-06T11:46:17;26.90;;;19.38;;
52456;SDS011;38369;52.840;7.082;2023-04-06T11:48:44;28.77;;;19.58;;
52456;SDS011;38369;52.840;7.082;2023-04-06T11:51:11;25.48;;;19.83;;
52456;SDS011;38369;52.840;7.082;2023-04-06T11:53:43;25.42;;;20.10;;
52456;SDS011;38369;52.840;7.082;2023-04-06T11:56:23;24.67;;;17.45;;
52456;SDS011;38369;52.840;7.082;2023-04-06T11:58:50;26.75;;;19.38;;
52456;SDS011;38369;52.840;7.082;2023-04-06T12:01:16;25.60;;;19.92;;
52456;SDS011;38369;52.840;7.082;2023-04-06T12:03:42;26.60;;;18.13;;
52456;SDS011;38369;52.840;7.082;2023-04-06T12:06:08;28.35;;;19.42;;
52456;SDS011;38369;52.840;7.082;2023-04-06T12:08:34;26.25;;;18.92;;
52456;SDS011;38369;52.840;7.082;2023-04-06T12:11:00;26.75;;;20.15;;
52456;SDS011;38369;52.840;7.082;2023-04-06T12:13:27;25.67;;;20.45;;
52456;SDS011;38369;52.840;7.082;2023-04-06T12:15:53;27.13;;;19.95;;
52456;SDS011;38369;52.840;7.082;2023-04-06T12:18:19;24.75;;;18.58;;
52456;SDS011;38369;52.840;7.082;2023-04-06T12:20:45;28.15;;;18.77;;
52456;SDS011;38369;52.840;7.082;2023-04-06T12:23:11;24.42;;;18.80;;
52456;SDS011;38369;52.840;7.082;2023-04-06T12:25:39;26.63;;;19.98;;
52456;SDS011;38369;52.840;7.082;2023-04-06T12:28:05;26.77;;;18.65;;
52456;SDS011;38369;52.840;7.082;2023-04-06T12:30:31;25.08;;;19.08;;
52456;SDS011;38369;52.840;7.082;2023-04-06T12:32:57;26.55;;;20.00;;
52456;SDS011;38369;52.840;7.082;2023-04-06T12:35:24;27.00;;;20.45;;
52456;SDS011;38369;52.840;7.082;2023-04-06T12:37:50;25.17;;;20.00;;
52456;SDS011;38369;52.840;7.082;2023-04-06T12:40:16;26.33;;;19.45;;
52456;SDS011;38369;52.840;7.082;2023-04-06T12:42:42;26.85;;;20.60;;
52456;SDS011;38369;52.840;7.082;2023-04-06T12:45:08;25.55;;;19.52;;
52456;SDS011;38369;52.840;7.082;2023-04-06T12:47:35;25.38;;;19.58;;
52456;SDS011;38369;52.840;7.082;2023-04-06T12:50:01;29.70;;;20.98;;
52456;SDS011;38369;52.840;7.082;2023-04-06T12:52:28;28.38;;;19.67;;
52456;SDS011;38369;52.840;7.082;2023-04-06T12:54:56;30.55;;;21.27;;
52456;SDS011;38369;52.840;7.082;2023-04-06T12:57:23;26.58;;;20.63;;
52456;SDS011;38369;52.840;7.082;2023-04-06T12:59:49;28.35;;;19.60;;
52456;SDS011;38369;52.840;7.082;2023-04-06T13:02:16;28.55;;;21.08;;
52456;SDS011;38369;52.840;7.082;2023-04-06T13:04:42;28.77;;;21.88;;
52456;SDS011;38369;52.840;7.082;2023-04-06T13:07:08;30.00;;;22.05;;
52456;SDS011;38369;52.840;7.082;2023-04-06T13:09:34;28.80;;;20.90;;
52456;SDS011;38369;52.840;7.082;2023-04-06T13:12:00;28.95;;;20.42;;
52456;SDS011;38369;52.840;7.082;2023-04-06T13:14:26;26.60;;;20.30;;
52456;SDS011;38369;52.840;7.082;2023-04-06T13:16:53;26.48;;;20.52;;
52456;SDS011;38369;52.840;7.082;2023-04-06T13:19:19;31.05;;;20.92;;
52456;SDS011;38369;52.840;7.082;2023-04-06T13:21:45;29.75;;;20.30;;
52456;SDS011;38369;52.840;7.082;2023-04-06T13:24:11;29.85;;;21.90;;
52456;SDS011;38369;52.840;7.082;2023-04-06T13:26:37;30.52;;;21.27;;
52456;SDS011;38369;52.840;7.082;2023-04-06T13:29:03;28.83;;;20.55;;
52456;SDS011;38369;52.840;7.082;2023-04-06T13:31:29;29.17;;;20.38;;
52456;SDS011;38369;52.840;7.082;2023-04-06T13:33:56;29.17;;;20.38;;
52456;SDS011;38369;52.840;7.082;2023-04-06T13:36:22;29.67;;;20.05;;
52456;SDS011;38369;52.840;7.082;2023-04-06T13:38:48;31.58;;;21.33;;
52456;SDS011;38369;52.840;7.082;2023-04-06T13:41:21;27.75;;;20.98;;
52456;SDS011;38369;52.840;7.082;2023-04-06T13:43:47;29.75;;;20.48;;
52456;SDS011;38369;52.840;7.082;2023-04-06T13:46:13;28.63;;;21.83;;
52456;SDS011;38369;52.840;7.082;2023-04-06T13:48:40;29.15;;;20.77;;
52456;SDS011;38369;52.840;7.082;2023-04-06T13:53:36;30.63;;;21.13;;
52456;SDS011;38369;52.840;7.082;2023-04-06T13:56:02;28.50;;;21.40;;
52456;SDS011;38369;52.840;7.082;2023-04-06T13:58:28;25.17;;;20.00;;
52456;SDS011;38369;52.840;7.082;2023-04-06T14:00:54;30.13;;;20.08;;
52456;SDS011;38369;52.840;7.082;2023-04-06T14:03:21;30.38;;;20.90;;
52456;SDS011;38369;52.840;7.082;2023-04-06T14:05:48;28.75;;;20.23;;
52456;SDS011;38369;52.840;7.082;2023-04-06T14:08:14;28.30;;;19.30;;
52456;SDS011;38369;52.840;7.082;2023-04-06T14:10:40;29.65;;;20.65;;
52456;SDS011;38369;52.840;7.082;2023-04-06T14:13:09;27.70;;;20.52;;
52456;SDS011;38369;52.840;7.082;2023-04-06T14:15:36;29.00;;;20.42;;
52456;SDS011;38369;52.840;7.082;2023-04-06T14:18:03;30.27;;;21.52;;
52456;SDS011;38369;52.840;7.082;2023-04-06T14:20:30;29.30;;;20.73;;
52456;SDS011;38369;52.840;7.082;2023-04-06T14:22:57;27.70;;;21.15;;
52456;SDS011;38369;52.840;7.082;2023-04-06T14:25:23;36.33;;;20.45;;
52456;SDS011;38369;52.840;7.082;2023-04-06T14:27:49;28.90;;;20.42;;
52456;SDS011;38369;52.840;7.082;2023-04-06T14:30:15;29.33;;;21.27;;
52456;SDS011;38369;52.840;7.082;2023-04-06T14:32:42;27.80;;;19.40;;
52456;SDS011;38369;52.840;7.082;2023-04-06T14:35:08;28.85;;;19.35;;
52456;SDS011;38369;52.840;7.082;2023-04-06T14:37:34;28.77;;;20.85;;
52456;SDS011;38369;52.840;7.082;2023-04-06T14:40:01;25.30;;;19.80;;
52456;SDS011;38369;52.840;7.082;2023-04-06T14:42:27;29.60;;;21.20;;
52456;SDS011;38369;52.840;7.082;2023-04-06T14:44:53;28.98;;;20.20;;
52456;SDS011;38369;52.840;7.082;2023-04-06T14:47:19;26.10;;;20.13;;
52456;SDS011;38369;52.840;7.082;2023-04-06T14:49:50;30.50;;;19.63;;
52456;SDS011;38369;52.840;7.082;2023-04-06T14:52:16;31.00;;;20.65;;
52456;SDS011;38369;52.840;7.082;2023-04-06T14:54:42;28.42;;;19.35;;
52456;SDS011;38369;52.840;7.082;2023-04-06T14:57:08;27.10;;;17.17;;
52456;SDS011;38369;52.840;7.082;2023-04-06T14:59:34;26.45;;;17.10;;
52456;SDS011;38369;52.840;7.082;2023-04-06T15:02:01;24.70;;;17.80;;
52456;SDS011;38369;52.840;7.082;2023-04-06T15:04:28;26.33;;;17.67;;
52456;SDS011;38369;52.840;7.082;2023-04-06T15:06:54;28.83;;;17.40;;
52456;SDS011;38369;52.840;7.082;2023-04-06T15:09:20;24.63;;;17.58;;
52456;SDS011;38369;52.840;7.082;2023-04-06T15:11:47;24.50;;;17.80;;
52456;SDS011;38369;52.840;7.082;2023-04-06T15:14:13;24.52;;;18.70;;
52456;SDS011;38369;52.840;7.082;2023-04-06T15:16:39;28.42;;;17.77;;
52456;SDS011;38369;52.840;7.082;2023-04-06T15:19:05;27.20;;;18.35;;
52456;SDS011;38369;52.840;7.082;2023-04-06T15:21:38;27.10;;;17.98;;
52456;SDS011;38369;52.840;7.082;2023-04-06T15:24:04;24.73;;;17.65;;
52456;SDS011;38369;52.840;7.082;2023-04-06T15:26:33;28.90;;;18.80;;
52456;SDS011;38369;52.840;7.082;2023-04-06T15:28:59;22.80;;;17.35;;
52456;SDS011;38369;52.840;7.082;2023-04-06T15:31:26;25.35;;;16.98;;
52456;SDS011;38369;52.840;7.082;2023-04-06T15:33:52;26.55;;;16.85;;
52456;SDS011;38369;52.840;7.082;2023-04-06T15:36:22;25.00;;;15.55;;
52456;SDS011;38369;52.840;7.082;2023-04-06T15:38:49;25.13;;;16.08;;
52456;SDS011;38369;52.840;7.082;2023-04-06T15:41:16;24.02;;;16.70;;
52456;SDS011;38369;52.840;7.082;2023-04-06T15:43:42;22.55;;;16.35;;
52456;SDS011;38369;52.840;7.082;2023-04-06T15:46:08;22.38;;;15.77;;
52456;SDS011;38369;52.840;7.082;2023-04-06T15:48:34;20.60;;;14.82;;
52456;SDS011;38369;52.840;7.082;2023-04-06T15:51:01;23.42;;;17.35;;
52456;SDS011;38369;52.840;7.082;2023-04-06T15:53:27;31.23;;;17.67;;
52456;SDS011;38369;52.840;7.082;2023-04-06T15:56:03;23.88;;;15.73;;
52456;SDS011;38369;52.840;7.082;2023-04-06T15:58:31;23.27;;;15.75;;
52456;SDS011;38369;52.840;7.082;2023-04-06T16:00:57;28.88;;;16.73;;
52456;SDS011;38369;52.840;7.082;2023-04-06T16:03:23;23.63;;;16.38;;
52456;SDS011;38369;52.840;7.082;2023-04-06T16:05:51;22.77;;;15.40;;
52456;SDS011;38369;52.840;7.082;2023-04-06T16:08:17;17.95;;;12.57;;
52456;SDS011;38369;52.840;7.082;2023-04-06T16:10:43;17.30;;;12.60;;
52456;SDS011;38369;52.840;7.082;2023-04-06T16:13:10;17.52;;;13.25;;
52456;SDS011;38369;52.840;7.082;2023-04-06T16:15:36;19.73;;;13.68;;
52456;SDS011;38369;52.840;7.082;2023-04-06T16:18:02;22.92;;;14.55;;
52456;SDS011;38369;52.840;7.082;2023-04-06T16:20:28;17.58;;;13.20;;
52456;SDS011;38369;52.840;7.082;2023-04-06T16:22:56;20.98;;;12.73;;
52456;SDS011;38369;52.840;7.082;2023-04-06T16:25:22;18.05;;;13.25;;
52456;SDS011;38369;52.840;7.082;2023-04-06T16:27:48;17.02;;;12.63;;
52456;SDS011;38369;52.840;7.082;2023-04-06T16:30:14;20.80;;;14.13;;
52456;SDS011;38369;52.840;7.082;2023-04-06T16:32:40;19.73;;;14.48;;
52456;SDS011;38369;52.840;7.082;2023-04-06T16:35:07;19.40;;;13.38;;
52456;SDS011;38369;52.840;7.082;2023-04-06T16:37:33;19.58;;;14.30;;
52456;SDS011;38369;52.840;7.082;2023-04-06T16:40:01;20.35;;;13.70;;
52456;SDS011;38369;52.840;7.082;2023-04-06T16:42:27;21.33;;;14.80;;
52456;SDS011;38369;52.840;7.082;2023-04-06T16:44:53;20.92;;;15.25;;
52456;SDS011;38369;52.840;7.082;2023-04-06T16:47:19;20.45;;;15.07;;
52456;SDS011;38369;52.840;7.082;2023-04-06T16:49:45;22.85;;;16.50;;
52456;SDS011;38369;52.840;7.082;2023-04-06T16:52:12;20.30;;;14.65;;
52456;SDS011;38369;52.840;7.082;2023-04-06T16:54:38;22.75;;;14.80;;
52456;SDS011;38369;52.840;7.082;2023-04-06T16:57:04;20.90;;;14.98;;
52456;SDS011;38369;52.840;7.082;2023-04-06T16:59:30;23.38;;;16.23;;
52456;SDS011;38369;52.840;7.082;2023-04-06T17:01:56;23.92;;;16.25;;
52456;SDS011;38369;52.840;7.082;2023-04-06T17:04:22;22.73;;;16.45;;
52456;SDS011;38369;52.840;7.082;2023-04-06T17:06:48;24.67;;;16.30;;
52456;SDS011;38369;52.840;7.082;2023-04-06T17:09:15;24.67;;;16.35;;
52456;SDS011;38369;52.840;7.082;2023-04-06T17:11:41;24.33;;;17.45;;
52456;SDS011;38369;52.840;7.082;2023-04-06T17:14:08;22.02;;;15.25;;
52456;SDS011;38369;52.840;7.082;2023-04-06T17:16:34;22.90;;;16.30;;
52456;SDS011;38369;52.840;7.082;2023-04-06T17:19:00;22.17;;;16.70;;
52456;SDS011;38369;52.840;7.082;2023-04-06T17:21:26;25.23;;;16.23;;
52456;SDS011;38369;52.840;7.082;2023-04-06T17:23:52;25.98;;;18.58;;
52456;SDS011;38369;52.840;7.082;2023-04-06T17:26:19;26.80;;;16.80;;
52456;SDS011;38369;52.840;7.082;2023-04-06T17:28:45;23.30;;;16.45;;
52456;SDS011;38369;52.840;7.082;2023-04-06T17:31:12;26.48;;;17.45;;
52456;SDS011;38369;52.840;7.082;2023-04-06T17:33:39;24.42;;;17.58;;
52456;SDS011;38369;52.840;7.082;2023-04-06T17:36:05;26.90;;;17.15;;
52456;SDS011;38369;52.840;7.082;2023-04-06T17:38:33;25.92;;;18.42;;